sensor_id;sensor_type;location;lat;lon;timestamp;temperature;humidity
14475;DHT22;7323;50.848;4.334;2022-12-18T00:01:20;0.20;24.70
14475;DHT22;7323;50.848;4.334;2022-12-18T00:03:47;0.20;23.10
14475;DHT22;7323;50.848;4.334;2022-12-18T00:06:12;0.10;22.70
14475;DHT22;7323;50.848;4.334;2022-12-18T00:08:40;0.20;22.80
14475;DHT22;7323;50.848;4.334;2022-12-18T00:11:07;0.10;20.60
14475;DHT22;7323;50.848;4.334;2022-12-18T00:13:33;-0.10;21.40
14475;DHT22;7323;50.848;4.334;2022-12-18T00:16:03;-0.30;25.80
14475;DHT22;7323;50.848;4.334;2022-12-18T00:18:29;-0.30;29.70
14475;DHT22;7323;50.848;4.334;2022-12-18T00:20:59;-0.40;33.90
14475;DHT22;7323;50.848;4.334;2022-12-18T00:23:24;-0.40;34.50
14475;DHT22;7323;50.848;4.334;2022-12-18T00:25:50;-0.30;35.10
14475;DHT22;7323;50.848;4.334;2022-12-18T00:28:16;-0.40;34.00
14475;DHT22;7323;50.848;4.334;2022-12-18T00:30:41;-0.60;35.60
14475;DHT22;7323;50.848;4.334;2022-12-18T00:33:07;-0.70;38.40
14475;DHT22;7323;50.848;4.334;2022-12-18T00:35:32;-0.70;41.70
14475;DHT22;7323;50.848;4.334;2022-12-18T00:37:58;-0.60;42.40
14475;DHT22;7323;50.848;4.334;2022-12-18T00:40:24;-0.50;42.40
14475;DHT22;7323;50.848;4.334;2022-12-18T00:42:49;-0.30;41.00
14475;DHT22;7323;50.848;4.334;2022-12-18T00:45:22;-0.30;38.70
14475;DHT22;7323;50.848;4.334;2022-12-18T00:47:48;-0.10;38.30
14475;DHT22;7323;50.848;4.334;2022-12-18T00:50:14;0.00;35.10
14475;DHT22;7323;50.848;4.334;2022-12-18T00:52:39;0.10;31.90
14475;DHT22;7323;50.848;4.334;2022-12-18T00:55:05;0.10;30.50
14475;DHT22;7323;50.848;4.334;2022-12-18T00:57:31;0.10;27.00
14475;DHT22;7323;50.848;4.334;2022-12-18T00:59:57;0.00;24.80
14475;DHT22;7323;50.848;4.334;2022-12-18T01:02:23;0.00;23.20
14475;DHT22;7323;50.848;4.334;2022-12-18T01:04:48;0.00;23.30
14475;DHT22;7323;50.848;4.334;2022-12-18T01:07:14;0.10;23.30
14475;DHT22;7323;50.848;4.334;2022-12-18T01:09:40;0.20;21.00
14475;DHT22;7323;50.848;4.334;2022-12-18T01:12:06;0.20;18.10
14475;DHT22;7323;50.848;4.334;2022-12-18T01:14:31;0.10;16.00
14475;DHT22;7323;50.848;4.334;2022-12-18T01:16:57;0.30;15.10
14475;DHT22;7323;50.848;4.334;2022-12-18T01:19:23;0.20;10.30
14475;DHT22;7323;50.848;4.334;2022-12-18T01:21:49;0.10;2.80
14475;DHT22;7323;50.848;4.334;2022-12-18T01:24:15;0.00;1.00
14475;DHT22;7323;50.848;4.334;2022-12-18T01:26:40;-0.10;1.00
14475;DHT22;7323;50.848;4.334;2022-12-18T01:29:06;-0.10;1.00
14475;DHT22;7323;50.848;4.334;2022-12-18T01:31:33;-0.10;1.00
14475;DHT22;7323;50.848;4.334;2022-12-18T01:34:03;-0.20;1.00
14475;DHT22;7323;50.848;4.334;2022-12-18T01:36:32;-0.10;1.00
14475;DHT22;7323;50.848;4.334;2022-12-18T01:39:10;-0.20;6.00
14475;DHT22;7323;50.848;4.334;2022-12-18T01:41:36;-0.20;10.10
14475;DHT22;7323;50.848;4.334;2022-12-18T01:47:32;-0.40;1.00
14475;DHT22;7323;50.848;4.334;2022-12-18T01:50:06;-0.40;1.00
14475;DHT22;7323;50.848;4.334;2022-12-18T01:52:32;-0.50;1.00
14475;DHT22;7323;50.848;4.334;2022-12-18T01:55:00;-0.30;1.00
14475;DHT22;7323;50.848;4.334;2022-12-18T01:57:27;-0.30;1.00
14475;DHT22;7323;50.848;4.334;2022-12-18T01:59:59;-0.30;1.00
14475;DHT22;7323;50.848;4.334;2022-12-18T02:02:28;0.00;1.00
14475;DHT22;7323;50.848;4.334;2022-12-18T02:04:55;-0.30;1.00
14475;DHT22;7323;50.848;4.334;2022-12-18T02:07:32;-0.20;1.00
14475;DHT22;7323;50.848;4.334;2022-12-18T02:13:03;-0.30;1.00
14475;DHT22;7323;50.848;4.334;2022-12-18T02:18:13;-0.50;2.50
14475;DHT22;7323;50.848;4.334;2022-12-18T02:20:59;-0.50;7.00
14475;DHT22;7323;50.848;4.334;2022-12-18T02:26:49;-0.40;7.50
14475;DHT22;7323;50.848;4.334;2022-12-18T02:29:27;-0.50;10.20
14475;DHT22;7323;50.848;4.334;2022-12-18T02:32:02;-0.50;12.00
14475;DHT22;7323;50.848;4.334;2022-12-18T02:34:34;-0.70;11.80
14475;DHT22;7323;50.848;4.334;2022-12-18T02:37:04;-0.70;15.20
14475;DHT22;7323;50.848;4.334;2022-12-18T02:39:32;-1.00;15.40
14475;DHT22;7323;50.848;4.334;2022-12-18T02:41:59;-1.10;21.00
14475;DHT22;7323;50.848;4.334;2022-12-18T02:44:27;-1.20;24.70
14475;DHT22;7323;50.848;4.334;2022-12-18T02:46:54;-1.20;27.50
14475;DHT22;7323;50.848;4.334;2022-12-18T02:49:48;-1.50;28.60
14475;DHT22;7323;50.848;4.334;2022-12-18T02:57:58;-1.40;41.30
14475;DHT22;7323;50.848;4.334;2022-12-18T03:00:35;-1.40;40.30
14475;DHT22;7323;50.848;4.334;2022-12-18T03:03:18;-1.50;43.00
14475;DHT22;7323;50.848;4.334;2022-12-18T03:05:52;-1.50;45.70
14475;DHT22;7323;50.848;4.334;2022-12-18T03:08:27;-1.60;44.00
14475;DHT22;7323;50.848;4.334;2022-12-18T03:11:04;-1.60;44.00
14475;DHT22;7323;50.848;4.334;2022-12-18T03:13:39;-1.70;43.90
14475;DHT22;7323;50.848;4.334;2022-12-18T03:16:09;-1.70;42.70
14475;DHT22;7323;50.848;4.334;2022-12-18T03:18:41;-1.50;39.80
14475;DHT22;7323;50.848;4.334;2022-12-18T03:21:09;-1.50;35.00
14475;DHT22;7323;50.848;4.334;2022-12-18T03:23:40;-1.50;32.60
14475;DHT22;7323;50.848;4.334;2022-12-18T03:26:10;-1.40;32.50
14475;DHT22;7323;50.848;4.334;2022-12-18T03:28:39;-1.50;32.90
14475;DHT22;7323;50.848;4.334;2022-12-18T03:31:12;-1.70;30.80
14475;DHT22;7323;50.848;4.334;2022-12-18T03:36:12;-1.80;33.10
14475;DHT22;7323;50.848;4.334;2022-12-18T03:38:38;-1.70;33.70
14475;DHT22;7323;50.848;4.334;2022-12-18T03:44:02;-1.60;29.30
14475;DHT22;7323;50.848;4.334;2022-12-18T03:52:26;-1.40;23.50
14475;DHT22;7323;50.848;4.334;2022-12-18T03:54:54;-1.40;23.40
14475;DHT22;7323;50.848;4.334;2022-12-18T03:57:22;-1.40;23.20
14475;DHT22;7323;50.848;4.334;2022-12-18T03:59:54;-1.20;23.60
14475;DHT22;7323;50.848;4.334;2022-12-18T04:02:23;-1.40;20.10
14475;DHT22;7323;50.848;4.334;2022-12-18T04:04:52;-1.40;22.00
14475;DHT22;7323;50.848;4.334;2022-12-18T04:07:19;-1.60;23.20
14475;DHT22;7323;50.848;4.334;2022-12-18T04:09:47;-1.70;25.70
14475;DHT22;7323;50.848;4.334;2022-12-18T04:12:13;-1.70;26.50
14475;DHT22;7323;50.848;4.334;2022-12-18T04:14:39;-1.70;25.10
14475;DHT22;7323;50.848;4.334;2022-12-18T04:17:05;-1.80;24.40
14475;DHT22;7323;50.848;4.334;2022-12-18T04:19:30;-1.80;24.50
14475;DHT22;7323;50.848;4.334;2022-12-18T04:21:56;-1.70;25.60
14475;DHT22;7323;50.848;4.334;2022-12-18T04:24:22;-1.70;24.70
14475;DHT22;7323;50.848;4.334;2022-12-18T04:26:47;-1.80;24.00
14475;DHT22;7323;50.848;4.334;2022-12-18T04:29:13;-1.70;24.20
14475;DHT22;7323;50.848;4.334;2022-12-18T04:31:39;-1.80;23.80
14475;DHT22;7323;50.848;4.334;2022-12-18T04:34:04;-1.70;24.60
14475;DHT22;7323;50.848;4.334;2022-12-18T04:36:30;-2.00;24.80
14475;DHT22;7323;50.848;4.334;2022-12-18T04:38:56;-2.20;27.20
14475;DHT22;7323;50.848;4.334;2022-12-18T04:41:21;-2.10;30.00
14475;DHT22;7323;50.848;4.334;2022-12-18T04:43:47;-2.20;33.40
14475;DHT22;7323;50.848;4.334;2022-12-18T04:46:13;-2.20;34.80
14475;DHT22;7323;50.848;4.334;2022-12-18T04:48:38;-2.30;36.30
14475;DHT22;7323;50.848;4.334;2022-12-18T04:51:05;-2.30;37.70
14475;DHT22;7323;50.848;4.334;2022-12-18T04:53:31;-2.30;36.80
14475;DHT22;7323;50.848;4.334;2022-12-18T04:56:11;-2.40;34.30
14475;DHT22;7323;50.848;4.334;2022-12-18T04:58:40;-2.50;36.20
14475;DHT22;7323;50.848;4.334;2022-12-18T05:01:07;-2.40;37.80
14475;DHT22;7323;50.848;4.334;2022-12-18T05:03:34;-2.30;39.10
14475;DHT22;7323;50.848;4.334;2022-12-18T05:06:01;-2.60;40.80
14475;DHT22;7323;50.848;4.334;2022-12-18T05:11:35;-2.60;44.20
14475;DHT22;7323;50.848;4.334;2022-12-18T05:14:01;-2.60;45.10
14475;DHT22;7323;50.848;4.334;2022-12-18T05:16:27;-2.50;45.10
14475;DHT22;7323;50.848;4.334;2022-12-18T05:18:53;-2.60;44.30
14475;DHT22;7323;50.848;4.334;2022-12-18T05:21:18;-2.50;46.60
14475;DHT22;7323;50.848;4.334;2022-12-18T05:23:44;-2.40;46.10
14475;DHT22;7323;50.848;4.334;2022-12-18T05:26:16;-2.50;44.80
14475;DHT22;7323;50.848;4.334;2022-12-18T05:28:42;-2.50;45.70
14475;DHT22;7323;50.848;4.334;2022-12-18T05:31:09;-2.40;44.80
14475;DHT22;7323;50.848;4.334;2022-12-18T05:33:35;-2.30;43.40
14475;DHT22;7323;50.848;4.334;2022-12-18T05:36:02;-2.20;41.50
14475;DHT22;7323;50.848;4.334;2022-12-18T05:38:29;-2.10;37.20
14475;DHT22;7323;50.848;4.334;2022-12-18T05:40:56;-2.10;32.70
14475;DHT22;7323;50.848;4.334;2022-12-18T05:43:23;-2.00;29.30
14475;DHT22;7323;50.848;4.334;2022-12-18T05:45:50;-1.90;27.90
14475;DHT22;7323;50.848;4.334;2022-12-18T05:48:17;-1.80;27.10
14475;DHT22;7323;50.848;4.334;2022-12-18T05:50:44;-1.80;25.30
14475;DHT22;7323;50.848;4.334;2022-12-18T05:53:11;-1.90;22.50
14475;DHT22;7323;50.848;4.334;2022-12-18T05:55:38;-1.90;22.80
14475;DHT22;7323;50.848;4.334;2022-12-18T05:58:06;-1.80;21.40
14475;DHT22;7323;50.848;4.334;2022-12-18T06:00:33;-1.70;21.30
14475;DHT22;7323;50.848;4.334;2022-12-18T06:03:01;-1.70;20.60
14475;DHT22;7323;50.848;4.334;2022-12-18T06:05:27;-1.50;20.70
14475;DHT22;7323;50.848;4.334;2022-12-18T06:07:53;-1.30;19.20
14475;DHT22;7323;50.848;4.334;2022-12-18T06:10:18;-1.60;15.80
14475;DHT22;7323;50.848;4.334;2022-12-18T06:12:44;-1.50;16.40
14475;DHT22;7323;50.848;4.334;2022-12-18T06:15:10;-1.50;15.50
14475;DHT22;7323;50.848;4.334;2022-12-18T06:17:36;-1.60;14.20
14475;DHT22;7323;50.848;4.334;2022-12-18T06:20:03;-1.60;13.70
14475;DHT22;7323;50.848;4.334;2022-12-18T06:22:31;-1.60;12.20
14475;DHT22;7323;50.848;4.334;2022-12-18T06:24:56;-1.60;11.90
14475;DHT22;7323;50.848;4.334;2022-12-18T06:27:22;-1.60;12.50
14475;DHT22;7323;50.848;4.334;2022-12-18T06:29:48;-1.50;13.40
14475;DHT22;7323;50.848;4.334;2022-12-18T06:32:14;-1.60;12.10
14475;DHT22;7323;50.848;4.334;2022-12-18T06:34:39;-1.50;13.80
14475;DHT22;7323;50.848;4.334;2022-12-18T06:37:05;-1.60;12.90
14475;DHT22;7323;50.848;4.334;2022-12-18T06:39:31;-1.40;11.60
14475;DHT22;7323;50.848;4.334;2022-12-18T06:41:56;-1.20;11.50
14475;DHT22;7323;50.848;4.334;2022-12-18T06:44:22;-1.00;8.80
14475;DHT22;7323;50.848;4.334;2022-12-18T06:46:48;-0.90;5.80
14475;DHT22;7323;50.848;4.334;2022-12-18T06:49:13;-1.00;1.10
14475;DHT22;7323;50.848;4.334;2022-12-18T06:51:39;-1.00;1.00
14475;DHT22;7323;50.848;4.334;2022-12-18T06:54:05;-1.00;1.00
14475;DHT22;7323;50.848;4.334;2022-12-18T06:56:31;-0.90;1.00
14475;DHT22;7323;50.848;4.334;2022-12-18T06:58:56;-0.70;1.00
14475;DHT22;7323;50.848;4.334;2022-12-18T07:01:22;-0.80;1.00
14475;DHT22;7323;50.848;4.334;2022-12-18T07:03:52;-0.80;1.00
14475;DHT22;7323;50.848;4.334;2022-12-18T07:06:21;-0.90;1.00
14475;DHT22;7323;50.848;4.334;2022-12-18T07:08:48;-0.80;1.00
14475;DHT22;7323;50.848;4.334;2022-12-18T07:11:14;-0.80;1.00
14475;DHT22;7323;50.848;4.334;2022-12-18T07:13:40;-0.70;1.00
14475;DHT22;7323;50.848;4.334;2022-12-18T07:16:13;-0.70;1.00
14475;DHT22;7323;50.848;4.334;2022-12-18T07:18:39;-0.50;1.00
14475;DHT22;7323;50.848;4.334;2022-12-18T07:21:10;-0.60;1.00
14475;DHT22;7323;50.848;4.334;2022-12-18T07:23:36;-0.40;1.00
14475;DHT22;7323;50.848;4.334;2022-12-18T07:26:07;-0.40;1.00
14475;DHT22;7323;50.848;4.334;2022-12-18T07:28:36;-0.60;1.00
14475;DHT22;7323;50.848;4.334;2022-12-18T07:31:14;-0.70;1.00
14475;DHT22;7323;50.848;4.334;2022-12-18T07:33:46;-1.00;1.00
14475;DHT22;7323;50.848;4.334;2022-12-18T07:36:12;-1.20;1.00
14475;DHT22;7323;50.848;4.334;2022-12-18T07:38:38;-1.20;1.00
14475;DHT22;7323;50.848;4.334;2022-12-18T07:41:10;-1.20;1.00
14475;DHT22;7323;50.848;4.334;2022-12-18T07:43:43;-1.10;1.00
14475;DHT22;7323;50.848;4.334;2022-12-18T07:46:10;-1.20;1.00
14475;DHT22;7323;50.848;4.334;2022-12-18T07:48:36;-1.10;1.00
14475;DHT22;7323;50.848;4.334;2022-12-18T07:51:04;-1.10;1.00
14475;DHT22;7323;50.848;4.334;2022-12-18T07:53:30;-1.00;1.00
14475;DHT22;7323;50.848;4.334;2022-12-18T07:55:57;-0.70;1.00
14475;DHT22;7323;50.848;4.334;2022-12-18T07:58:24;-0.70;1.00
14475;DHT22;7323;50.848;4.334;2022-12-18T08:00:50;-0.70;1.00
14475;DHT22;7323;50.848;4.334;2022-12-18T08:03:15;-0.50;1.00
14475;DHT22;7323;50.848;4.334;2022-12-18T08:05:41;-0.30;1.00
14475;DHT22;7323;50.848;4.334;2022-12-18T08:08:07;-0.50;1.00
14475;DHT22;7323;50.848;4.334;2022-12-18T08:10:32;-0.40;1.00
14475;DHT22;7323;50.848;4.334;2022-12-18T08:12:58;-0.50;1.00
14475;DHT22;7323;50.848;4.334;2022-12-18T08:15:24;-0.40;1.00
14475;DHT22;7323;50.848;4.334;2022-12-18T08:17:49;-0.30;1.00
14475;DHT22;7323;50.848;4.334;2022-12-18T08:20:15;-0.30;1.00
14475;DHT22;7323;50.848;4.334;2022-12-18T08:22:42;-0.30;1.00
14475;DHT22;7323;50.848;4.334;2022-12-18T08:25:08;-0.20;1.00
14475;DHT22;7323;50.848;4.334;2022-12-18T08:27:33;-0.10;1.00
14475;DHT22;7323;50.848;4.334;2022-12-18T08:29:59;0.00;1.00
14475;DHT22;7323;50.848;4.334;2022-12-18T08:32:26;0.00;1.00
14475;DHT22;7323;50.848;4.334;2022-12-18T08:34:52;0.10;1.00
14475;DHT22;7323;50.848;4.334;2022-12-18T08:37:17;0.20;1.00
14475;DHT22;7323;50.848;4.334;2022-12-18T08:39:43;0.10;1.00
14475;DHT22;7323;50.848;4.334;2022-12-18T08:42:09;0.10;1.00
14475;DHT22;7323;50.848;4.334;2022-12-18T08:44:53;0.10;1.00
14475;DHT22;7323;50.848;4.334;2022-12-18T08:47:19;0.10;1.00
14475;DHT22;7323;50.848;4.334;2022-12-18T08:49:44;0.20;1.00
14475;DHT22;7323;50.848;4.334;2022-12-18T08:52:10;0.30;1.00
14475;DHT22;7323;50.848;4.334;2022-12-18T08:54:36;0.40;1.00
14475;DHT22;7323;50.848;4.334;2022-12-18T08:57:02;0.20;1.00
14475;DHT22;7323;50.848;4.334;2022-12-18T08:59:28;0.50;1.00
14475;DHT22;7323;50.848;4.334;2022-12-18T09:01:55;0.50;1.00
14475;DHT22;7323;50.848;4.334;2022-12-18T09:04:21;0.50;1.00
14475;DHT22;7323;50.848;4.334;2022-12-18T09:06:47;0.80;1.00
14475;DHT22;7323;50.848;4.334;2022-12-18T09:09:13;0.90;1.00
14475;DHT22;7323;50.848;4.334;2022-12-18T09:11:39;0.90;1.00
14475;DHT22;7323;50.848;4.334;2022-12-18T09:14:04;1.10;1.00
14475;DHT22;7323;50.848;4.334;2022-12-18T09:16:31;1.00;1.00
14475;DHT22;7323;50.848;4.334;2022-12-18T09:18:57;1.10;1.00
14475;DHT22;7323;50.848;4.334;2022-12-18T09:21:30;1.20;1.00
14475;DHT22;7323;50.848;4.334;2022-12-18T09:23:58;1.10;1.00
14475;DHT22;7323;50.848;4.334;2022-12-18T09:26:25;1.20;1.00
14475;DHT22;7323;50.848;4.334;2022-12-18T09:28:52;1.30;1.00
14475;DHT22;7323;50.848;4.334;2022-12-18T09:31:20;1.40;1.00
14475;DHT22;7323;50.848;4.334;2022-12-18T09:33:47;1.40;1.00
14475;DHT22;7323;50.848;4.334;2022-12-18T09:36:15;1.50;1.00
14475;DHT22;7323;50.848;4.334;2022-12-18T09:38:42;1.60;1.00
14475;DHT22;7323;50.848;4.334;2022-12-18T09:43:51;1.60;1.00
14475;DHT22;7323;50.848;4.334;2022-12-18T09:46:30;1.80;1.00
14475;DHT22;7323;50.848;4.334;2022-12-18T09:49:00;1.80;1.00
14475;DHT22;7323;50.848;4.334;2022-12-18T09:51:30;1.80;1.00
14475;DHT22;7323;50.848;4.334;2022-12-18T09:54:05;1.80;1.00
14475;DHT22;7323;50.848;4.334;2022-12-18T09:56:35;1.80;1.00
14475;DHT22;7323;50.848;4.334;2022-12-18T09:59:04;1.80;1.00
14475;DHT22;7323;50.848;4.334;2022-12-18T10:01:32;1.90;1.00
14475;DHT22;7323;50.848;4.334;2022-12-18T10:03:58;1.90;1.00
14475;DHT22;7323;50.848;4.334;2022-12-18T10:14:57;2.20;1.00
14475;DHT22;7323;50.848;4.334;2022-12-18T10:20:38;2.10;1.00
14475;DHT22;7323;50.848;4.334;2022-12-18T10:26:05;2.30;1.00
14475;DHT22;7323;50.848;4.334;2022-12-18T10:28:33;2.40;1.00
14475;DHT22;7323;50.848;4.334;2022-12-18T10:31:00;2.50;1.00
14475;DHT22;7323;50.848;4.334;2022-12-18T10:33:31;2.50;1.00
14475;DHT22;7323;50.848;4.334;2022-12-18T10:35:58;2.60;1.00
14475;DHT22;7323;50.848;4.334;2022-12-18T10:38:28;2.70;1.00
14475;DHT22;7323;50.848;4.334;2022-12-18T10:43:36;2.50;1.00
14475;DHT22;7323;50.848;4.334;2022-12-18T10:48:28;2.50;1.00
14475;DHT22;7323;50.848;4.334;2022-12-18T10:50:55;2.40;1.00
14475;DHT22;7323;50.848;4.334;2022-12-18T10:53:24;2.50;1.00
14475;DHT22;7323;50.848;4.334;2022-12-18T10:55:53;2.50;1.00
14475;DHT22;7323;50.848;4.334;2022-12-18T10:58:25;2.50;1.00
14475;DHT22;7323;50.848;4.334;2022-12-18T11:01:06;2.20;1.00
14475;DHT22;7323;50.848;4.334;2022-12-18T11:08:30;2.10;1.00
14475;DHT22;7323;50.848;4.334;2022-12-18T11:10:56;2.00;1.00
14475;DHT22;7323;50.848;4.334;2022-12-18T11:13:26;1.90;1.00
14475;DHT22;7323;50.848;4.334;2022-12-18T11:15:53;1.90;1.00
14475;DHT22;7323;50.848;4.334;2022-12-18T11:18:28;2.00;1.00
14475;DHT22;7323;50.848;4.334;2022-12-18T11:21:06;2.10;1.00
14475;DHT22;7323;50.848;4.334;2022-12-18T11:23:33;2.00;1.00
14475;DHT22;7323;50.848;4.334;2022-12-18T11:26:02;2.00;1.00
14475;DHT22;7323;50.848;4.334;2022-12-18T11:31:24;2.00;1.00
14475;DHT22;7323;50.848;4.334;2022-12-18T11:36:22;1.90;1.00
14475;DHT22;7323;50.848;4.334;2022-12-18T11:38:51;1.90;1.00
14475;DHT22;7323;50.848;4.334;2022-12-18T11:41:42;1.80;1.00
14475;DHT22;7323;50.848;4.334;2022-12-18T11:44:38;1.80;1.00
14475;DHT22;7323;50.848;4.334;2022-12-18T11:49:42;1.80;1.00
14475;DHT22;7323;50.848;4.334;2022-12-18T11:52:21;1.80;1.00
14475;DHT22;7323;50.848;4.334;2022-12-18T11:54:51;1.90;1.00
14475;DHT22;7323;50.848;4.334;2022-12-18T11:58:24;2.00;1.00
14475;DHT22;7323;50.848;4.334;2022-12-18T12:00:28;2.10;1.00
14475;DHT22;7323;50.848;4.334;2022-12-18T12:08:40;2.30;1.00
14475;DHT22;7323;50.848;4.334;2022-12-18T12:14:16;2.40;1.00
14475;DHT22;7323;50.848;4.334;2022-12-18T12:20:31;2.70;1.00
14475;DHT22;7323;50.848;4.334;2022-12-18T12:23:26;2.60;1.00
14475;DHT22;7323;50.848;4.334;2022-12-18T12:39:40;2.70;1.00
14475;DHT22;7323;50.848;4.334;2022-12-18T12:45:36;2.80;1.00
14475;DHT22;7323;50.848;4.334;2022-12-18T12:48:04;2.70;1.00
14475;DHT22;7323;50.848;4.334;2022-12-18T12:50:34;2.60;1.00
14475;DHT22;7323;50.848;4.334;2022-12-18T12:53:01;2.60;1.00
14475;DHT22;7323;50.848;4.334;2022-12-18T12:55:31;2.70;1.00
14475;DHT22;7323;50.848;4.334;2022-12-18T13:03:55;2.70;1.00
14475;DHT22;7323;50.848;4.334;2022-12-18T13:06:35;2.80;1.00
14475;DHT22;7323;50.848;4.334;2022-12-18T13:09:03;2.70;1.00
14475;DHT22;7323;50.848;4.334;2022-12-18T13:11:47;2.80;1.00
14475;DHT22;7323;50.848;4.334;2022-12-18T13:14:39;2.60;1.00
14475;DHT22;7323;50.848;4.334;2022-12-18T13:22:44;2.50;1.00
14475;DHT22;7323;50.848;4.334;2022-12-18T13:28:21;2.50;1.00
14475;DHT22;7323;50.848;4.334;2022-12-18T13:30:53;2.50;1.00
14475;DHT22;7323;50.848;4.334;2022-12-18T13:41:01;2.40;1.00
14475;DHT22;7323;50.848;4.334;2022-12-18T13:43:34;2.30;1.00
14475;DHT22;7323;50.848;4.334;2022-12-18T13:46:20;2.20;1.00
14475;DHT22;7323;50.848;4.334;2022-12-18T13:49:02;2.20;1.00
14475;DHT22;7323;50.848;4.334;2022-12-18T13:51:32;2.20;1.00
14475;DHT22;7323;50.848;4.334;2022-12-18T13:56:48;2.20;1.00
14475;DHT22;7323;50.848;4.334;2022-12-18T13:59:33;2.10;1.00
14475;DHT22;7323;50.848;4.334;2022-12-18T14:02:04;2.30;1.00
14475;DHT22;7323;50.848;4.334;2022-12-18T14:04:32;2.20;1.00
14475;DHT22;7323;50.848;4.334;2022-12-18T14:07:02;2.20;1.00
14475;DHT22;7323;50.848;4.334;2022-12-18T14:09:31;2.30;1.00
14475;DHT22;7323;50.848;4.334;2022-12-18T14:11:59;2.20;1.00
14475;DHT22;7323;50.848;4.334;2022-12-18T14:14:46;2.50;1.00
14475;DHT22;7323;50.848;4.334;2022-12-18T14:17:17;2.20;1.00
14475;DHT22;7323;50.848;4.334;2022-12-18T14:19:51;2.10;1.00
14475;DHT22;7323;50.848;4.334;2022-12-18T14:22:27;2.20;1.00
14475;DHT22;7323;50.848;4.334;2022-12-18T14:27:46;2.10;1.00
14475;DHT22;7323;50.848;4.334;2022-12-18T14:30:35;2.10;1.00
14475;DHT22;7323;50.848;4.334;2022-12-18T14:33:16;2.20;1.00
14475;DHT22;7323;50.848;4.334;2022-12-18T14:35:59;2.20;1.00
14475;DHT22;7323;50.848;4.334;2022-12-18T14:49:24;2.20;1.00
14475;DHT22;7323;50.848;4.334;2022-12-18T14:51:54;2.30;1.00
14475;DHT22;7323;50.848;4.334;2022-12-18T14:54:21;2.30;1.00
14475;DHT22;7323;50.848;4.334;2022-12-18T14:56:54;2.40;1.00
14475;DHT22;7323;50.848;4.334;2022-12-18T14:59:24;2.40;1.00
14475;DHT22;7323;50.848;4.334;2022-12-18T15:02:10;2.40;1.00
14475;DHT22;7323;50.848;4.334;2022-12-18T15:04:42;2.40;1.00
14475;DHT22;7323;50.848;4.334;2022-12-18T15:07:16;2.30;1.00
14475;DHT22;7323;50.848;4.334;2022-12-18T15:12:34;2.60;1.00
14475;DHT22;7323;50.848;4.334;2022-12-18T15:15:01;2.40;1.00
14475;DHT22;7323;50.848;4.334;2022-12-18T15:17:27;2.40;1.00
14475;DHT22;7323;50.848;4.334;2022-12-18T15:20:02;2.40;1.00
14475;DHT22;7323;50.848;4.334;2022-12-18T15:22:33;2.40;1.00
14475;DHT22;7323;50.848;4.334;2022-12-18T15:24:59;2.50;1.00
14475;DHT22;7323;50.848;4.334;2022-12-18T15:27:33;2.50;1.00
14475;DHT22;7323;50.848;4.334;2022-12-18T15:30:17;2.40;1.00
14475;DHT22;7323;50.848;4.334;2022-12-18T15:32:48;2.50;1.00
14475;DHT22;7323;50.848;4.334;2022-12-18T15:37:41;2.50;1.00
14475;DHT22;7323;50.848;4.334;2022-12-18T15:40:14;2.40;1.00
14475;DHT22;7323;50.848;4.334;2022-12-18T15:42:41;2.40;1.00
14475;DHT22;7323;50.848;4.334;2022-12-18T15:45:26;2.40;1.00
14475;DHT22;7323;50.848;4.334;2022-12-18T15:47:55;2.40;1.00
14475;DHT22;7323;50.848;4.334;2022-12-18T15:50:21;2.30;1.00
14475;DHT22;7323;50.848;4.334;2022-12-18T15:52:49;2.30;1.00
14475;DHT22;7323;50.848;4.334;2022-12-18T15:55:18;2.40;1.00
14475;DHT22;7323;50.848;4.334;2022-12-18T15:58:03;2.50;1.00
14475;DHT22;7323;50.848;4.334;2022-12-18T16:00:30;2.50;1.00
14475;DHT22;7323;50.848;4.334;2022-12-18T16:02:57;2.60;1.00
14475;DHT22;7323;50.848;4.334;2022-12-18T16:05:27;2.40;1.00
14475;DHT22;7323;50.848;4.334;2022-12-18T16:07:53;2.50;1.00
14475;DHT22;7323;50.848;4.334;2022-12-18T16:10:20;2.50;1.00
14475;DHT22;7323;50.848;4.334;2022-12-18T16:12:48;2.40;1.00
14475;DHT22;7323;50.848;4.334;2022-12-18T16:15:14;2.50;1.00
14475;DHT22;7323;50.848;4.334;2022-12-18T16:17:45;2.40;1.00
14475;DHT22;7323;50.848;4.334;2022-12-18T16:20:21;2.40;1.00
14475;DHT22;7323;50.848;4.334;2022-12-18T16:22:49;2.40;1.00
14475;DHT22;7323;50.848;4.334;2022-12-18T16:25:23;2.50;1.00
14475;DHT22;7323;50.848;4.334;2022-12-18T16:27:50;2.40;1.00
14475;DHT22;7323;50.848;4.334;2022-12-18T16:30:19;2.40;1.00
14475;DHT22;7323;50.848;4.334;2022-12-18T16:32:45;2.40;1.00
14475;DHT22;7323;50.848;4.334;2022-12-18T16:35:12;2.40;1.00
14475;DHT22;7323;50.848;4.334;2022-12-18T16:37:47;2.40;1.00
14475;DHT22;7323;50.848;4.334;2022-12-18T16:40:19;2.50;1.00
14475;DHT22;7323;50.848;4.334;2022-12-18T16:42:49;2.50;1.00
14475;DHT22;7323;50.848;4.334;2022-12-18T16:45:23;2.50;1.00
14475;DHT22;7323;50.848;4.334;2022-12-18T16:48:22;2.60;1.00
14475;DHT22;7323;50.848;4.334;2022-12-18T16:51:00;2.60;1.00
14475;DHT22;7323;50.848;4.334;2022-12-18T16:56:31;2.50;1.00
14475;DHT22;7323;50.848;4.334;2022-12-18T16:58:59;2.60;1.00
14475;DHT22;7323;50.848;4.334;2022-12-18T17:01:27;2.50;1.00
14475;DHT22;7323;50.848;4.334;2022-12-18T17:04:02;2.60;1.00
14475;DHT22;7323;50.848;4.334;2022-12-18T17:06:34;2.50;1.00
14475;DHT22;7323;50.848;4.334;2022-12-18T17:09:07;2.50;1.00
14475;DHT22;7323;50.848;4.334;2022-12-18T17:11:35;2.60;1.00
14475;DHT22;7323;50.848;4.334;2022-12-18T17:14:15;2.40;1.00
14475;DHT22;7323;50.848;4.334;2022-12-18T17:16:46;2.50;1.00
14475;DHT22;7323;50.848;4.334;2022-12-18T17:19:13;2.60;1.00
14475;DHT22;7323;50.848;4.334;2022-12-18T17:21:40;2.60;1.00
14475;DHT22;7323;50.848;4.334;2022-12-18T17:24:06;2.80;1.00
14475;DHT22;7323;50.848;4.334;2022-12-18T17:26:32;2.60;1.00
14475;DHT22;7323;50.848;4.334;2022-12-18T17:28:58;2.60;1.00
14475;DHT22;7323;50.848;4.334;2022-12-18T17:31:28;2.60;1.00
14475;DHT22;7323;50.848;4.334;2022-12-18T17:33:57;2.50;1.00
14475;DHT22;7323;50.848;4.334;2022-12-18T17:36:24;2.50;1.00
14475;DHT22;7323;50.848;4.334;2022-12-18T17:39:03;2.70;1.00
14475;DHT22;7323;50.848;4.334;2022-12-18T17:41:29;2.60;1.00
14475;DHT22;7323;50.848;4.334;2022-12-18T17:44:01;2.70;1.00
14475;DHT22;7323;50.848;4.334;2022-12-18T17:46:28;2.60;1.00
14475;DHT22;7323;50.848;4.334;2022-12-18T17:48:56;2.60;1.00
14475;DHT22;7323;50.848;4.334;2022-12-18T17:51:24;2.60;1.00
14475;DHT22;7323;50.848;4.334;2022-12-18T17:53:50;2.60;1.00
14475;DHT22;7323;50.848;4.334;2022-12-18T17:56:18;2.50;1.00
14475;DHT22;7323;50.848;4.334;2022-12-18T17:58:51;2.50;1.00
14475;DHT22;7323;50.848;4.334;2022-12-18T18:01:19;2.40;1.00
14475;DHT22;7323;50.848;4.334;2022-12-18T18:03:47;2.50;1.00
14475;DHT22;7323;50.848;4.334;2022-12-18T18:06:14;2.50;1.00
14475;DHT22;7323;50.848;4.334;2022-12-18T18:08:45;2.50;1.00
14475;DHT22;7323;50.848;4.334;2022-12-18T18:11:18;2.50;1.00
14475;DHT22;7323;50.848;4.334;2022-12-18T18:14:09;2.50;1.00
14475;DHT22;7323;50.848;4.334;2022-12-18T18:16:50;2.50;1.00
14475;DHT22;7323;50.848;4.334;2022-12-18T18:19:24;2.50;1.00
14475;DHT22;7323;50.848;4.334;2022-12-18T18:21:53;2.40;1.00
14475;DHT22;7323;50.848;4.334;2022-12-18T18:24:22;2.40;6.30
14475;DHT22;7323;50.848;4.334;2022-12-18T18:26:48;2.40;9.70
14475;DHT22;7323;50.848;4.334;2022-12-18T18:29:18;2.50;13.70
14475;DHT22;7323;50.848;4.334;2022-12-18T18:31:45;2.40;17.10
14475;DHT22;7323;50.848;4.334;2022-12-18T18:34:24;2.50;20.70
14475;DHT22;7323;50.848;4.334;2022-12-18T18:37:05;2.40;23.30
14475;DHT22;7323;50.848;4.334;2022-12-18T18:39:37;2.40;26.40
14475;DHT22;7323;50.848;4.334;2022-12-18T18:42:03;2.30;28.60
14475;DHT22;7323;50.848;4.334;2022-12-18T18:44:32;2.40;32.50